sensor_id;sensor_type;location;lat;lon;timestamp;P1;durP1;ratioP1;P2;durP2;ratioP2
34872;SDS011;21084;51.098;14.506;2024-01-30T00:00:04;37.33;;;17.27;;
34872;SDS011;21084;51.098;14.506;2024-01-30T00:05:03;37.17;;;16.40;;
34872;SDS011;21084;51.098;14.506;2024-01-30T00:07:32;36.13;;;17.23;;
34872;SDS011;21084;51.098;14.506;2024-01-30T00:10:01;35.45;;;17.30;;
34872;SDS011;21084;51.098;14.506;2024-01-30T00:12:29;33.10;;;17.23;;
34872;SDS011;21084;51.098;14.506;2024-01-30T00:14:58;38.67;;;17.58;;
34872;SDS011;21084;51.098;14.506;2024-01-30T00:17:28;34.80;;;18.00;;
34872;SDS011;21084;51.098;14.506;2024-01-30T00:19:56;39.42;;;17.95;;
34872;SDS011;21084;51.098;14.506;2024-01-30T00:22:26;38.20;;;18.50;;
34872;SDS011;21084;51.098;14.506;2024-01-30T00:24:57;38.85;;;17.95;;
34872;SDS011;21084;51.098;14.506;2024-01-30T00:27:25;32.80;;;17.65;;
34872;SDS011;21084;51.098;14.506;2024-01-30T00:29:54;37.60;;;17.10;;
34872;SDS011;21084;51.098;14.506;2024-01-30T00:32:23;35.13;;;17.52;;
34872;SDS011;21084;51.098;14.506;2024-01-30T00:34:51;36.30;;;17.33;;
34872;SDS011;21084;51.098;14.506;2024-01-30T00:37:20;41.53;;;18.98;;
34872;SDS011;21084;51.098;14.506;2024-01-30T00:39:50;40.90;;;17.55;;
34872;SDS011;21084;51.098;14.506;2024-01-30T00:42:18;34.40;;;17.13;;
34872;SDS011;21084;51.098;14.506;2024-01-30T00:44:48;35.38;;;17.35;;
34872;SDS011;21084;51.098;14.506;2024-01-30T00:47:16;34.65;;;16.63;;
34872;SDS011;21084;51.098;14.506;2024-01-30T00:49:45;42.15;;;17.95;;
34872;SDS011;21084;51.098;14.506;2024-01-30T00:52:13;37.85;;;17.83;;
34872;SDS011;21084;51.098;14.506;2024-01-30T00:54:42;36.95;;;16.80;;
34872;SDS011;21084;51.098;14.506;2024-01-30T00:57:12;36.38;;;17.90;;
34872;SDS011;21084;51.098;14.506;2024-01-30T00:59:41;36.03;;;17.67;;
34872;SDS011;21084;51.098;14.506;2024-01-30T01:02:09;37.00;;;16.77;;
34872;SDS011;21084;51.098;14.506;2024-01-30T01:04:38;44.00;;;18.00;;
34872;SDS011;21084;51.098;14.506;2024-01-30T01:07:06;34.75;;;17.50;;
34872;SDS011;21084;51.098;14.506;2024-01-30T01:09:35;37.67;;;17.80;;
34872;SDS011;21084;51.098;14.506;2024-01-30T01:12:04;36.67;;;17.13;;
34872;SDS011;21084;51.098;14.506;2024-01-30T01:14:35;37.72;;;16.88;;
34872;SDS011;21084;51.098;14.506;2024-01-30T01:17:04;40.83;;;17.50;;
34872;SDS011;21084;51.098;14.506;2024-01-30T01:19:33;34.37;;;17.37;;
34872;SDS011;21084;51.098;14.506;2024-01-30T01:22:01;38.30;;;17.30;;
34872;SDS011;21084;51.098;14.506;2024-01-30T01:24:31;34.45;;;17.13;;
34872;SDS011;21084;51.098;14.506;2024-01-30T01:26:59;32.83;;;17.38;;
34872;SDS011;21084;51.098;14.506;2024-01-30T01:29:28;38.40;;;16.42;;
34872;SDS011;21084;51.098;14.506;2024-01-30T01:31:58;34.55;;;16.92;;
34872;SDS011;21084;51.098;14.506;2024-01-30T01:34:28;33.70;;;16.90;;
34872;SDS011;21084;51.098;14.506;2024-01-30T01:36:57;34.80;;;17.30;;
34872;SDS011;21084;51.098;14.506;2024-01-30T01:39:25;31.90;;;16.80;;
34872;SDS011;21084;51.098;14.506;2024-01-30T01:41:54;32.63;;;16.55;;
34872;SDS011;21084;51.098;14.506;2024-01-30T01:44:22;35.65;;;17.27;;
34872;SDS011;21084;51.098;14.506;2024-01-30T01:46:51;37.13;;;16.80;;
34872;SDS011;21084;51.098;14.506;2024-01-30T01:49:22;36.42;;;16.80;;
34872;SDS011;21084;51.098;14.506;2024-01-30T01:51:53;39.03;;;17.13;;
34872;SDS011;21084;51.098;14.506;2024-01-30T01:54:24;31.60;;;16.38;;
34872;SDS011;21084;51.098;14.506;2024-01-30T01:56:54;32.13;;;15.40;;
34872;SDS011;21084;51.098;14.506;2024-01-30T01:59:23;37.22;;;17.05;;
34872;SDS011;21084;51.098;14.506;2024-01-30T02:01:52;34.95;;;16.45;;
34872;SDS011;21084;51.098;14.506;2024-01-30T02:04:25;33.05;;;16.75;;
34872;SDS011;21084;51.098;14.506;2024-01-30T02:06:53;39.72;;;17.70;;
34872;SDS011;21084;51.098;14.506;2024-01-30T02:09:22;34.90;;;16.50;;
34872;SDS011;21084;51.098;14.506;2024-01-30T02:11:51;32.80;;;15.70;;
34872;SDS011;21084;51.098;14.506;2024-01-30T02:14:19;33.70;;;16.40;;
34872;SDS011;21084;51.098;14.506;2024-01-30T02:16:48;35.13;;;16.80;;
34872;SDS011;21084;51.098;14.506;2024-01-30T02:19:16;35.22;;;17.20;;
34872;SDS011;21084;51.098;14.506;2024-01-30T02:21:48;36.60;;;17.23;;
34872;SDS011;21084;51.098;14.506;2024-01-30T02:24:17;33.00;;;16.55;;
34872;SDS011;21084;51.098;14.506;2024-01-30T02:26:46;38.28;;;17.92;;
34872;SDS011;21084;51.098;14.506;2024-01-30T02:29:14;34.28;;;17.25;;
34872;SDS011;21084;51.098;14.506;2024-01-30T02:31:43;39.67;;;16.98;;
34872;SDS011;21084;51.098;14.506;2024-01-30T02:36:42;31.23;;;16.90;;
34872;SDS011;21084;51.098;14.506;2024-01-30T02:41:40;40.17;;;17.48;;
34872;SDS011;21084;51.098;14.506;2024-01-30T02:44:09;33.80;;;16.33;;
34872;SDS011;21084;51.098;14.506;2024-01-30T02:46:38;39.10;;;16.95;;
34872;SDS011;21084;51.098;14.506;2024-01-30T02:49:06;38.17;;;17.38;;
34872;SDS011;21084;51.098;14.506;2024-01-30T02:51:35;35.78;;;16.77;;
34872;SDS011;21084;51.098;14.506;2024-01-30T02:54:03;33.25;;;16.70;;
34872;SDS011;21084;51.098;14.506;2024-01-30T02:56:33;38.90;;;17.00;;
34872;SDS011;21084;51.098;14.506;2024-01-30T03:01:30;35.42;;;15.68;;
34872;SDS011;21084;51.098;14.506;2024-01-30T03:03:59;36.95;;;17.48;;
34872;SDS011;21084;51.098;14.506;2024-01-30T03:06:28;38.70;;;16.95;;
34872;SDS011;21084;51.098;14.506;2024-01-30T03:08:57;35.05;;;17.30;;
34872;SDS011;21084;51.098;14.506;2024-01-30T03:11:25;39.70;;;17.60;;
34872;SDS011;21084;51.098;14.506;2024-01-30T03:13:55;38.53;;;16.85;;
34872;SDS011;21084;51.098;14.506;2024-01-30T03:16:24;35.22;;;18.13;;
34872;SDS011;21084;51.098;14.506;2024-01-30T03:18:52;34.90;;;17.45;;
34872;SDS011;21084;51.098;14.506;2024-01-30T03:21:21;34.22;;;16.35;;
34872;SDS011;21084;51.098;14.506;2024-01-30T03:23:50;34.20;;;16.65;;
34872;SDS011;21084;51.098;14.506;2024-01-30T03:26:18;35.30;;;17.25;;
34872;SDS011;21084;51.098;14.506;2024-01-30T03:28:47;33.47;;;16.75;;
34872;SDS011;21084;51.098;14.506;2024-01-30T03:31:17;39.25;;;17.73;;
34872;SDS011;21084;51.098;14.506;2024-01-30T03:33:45;32.88;;;16.92;;
34872;SDS011;21084;51.098;14.506;2024-01-30T03:36:15;37.95;;;18.42;;
34872;SDS011;21084;51.098;14.506;2024-01-30T03:38:44;31.38;;;16.38;;
34872;SDS011;21084;51.098;14.506;2024-01-30T03:41:12;38.33;;;18.00;;
34872;SDS011;21084;51.098;14.506;2024-01-30T03:43:41;40.72;;;17.83;;
34872;SDS011;21084;51.098;14.506;2024-01-30T03:46:11;34.03;;;16.58;;
34872;SDS011;21084;51.098;14.506;2024-01-30T03:48:41;35.78;;;16.88;;
34872;SDS011;21084;51.098;14.506;2024-01-30T03:51:10;39.60;;;17.02;;
34872;SDS011;21084;51.098;14.506;2024-01-30T03:53:41;33.92;;;17.58;;
34872;SDS011;21084;51.098;14.506;2024-01-30T03:56:10;34.27;;;17.97;;
34872;SDS011;21084;51.098;14.506;2024-01-30T03:58:39;40.67;;;16.88;;
34872;SDS011;21084;51.098;14.506;2024-01-30T04:01:12;34.53;;;17.02;;
34872;SDS011;21084;51.098;14.506;2024-01-30T04:03:43;34.80;;;17.77;;
34872;SDS011;21084;51.098;14.506;2024-01-30T04:06:12;33.85;;;16.95;;
34872;SDS011;21084;51.098;14.506;2024-01-30T04:08:40;36.65;;;17.13;;
34872;SDS011;21084;51.098;14.506;2024-01-30T04:11:09;33.97;;;17.88;;
34872;SDS011;21084;51.098;14.506;2024-01-30T04:13:37;38.05;;;17.67;;
34872;SDS011;21084;51.098;14.506;2024-01-30T04:16:06;32.80;;;16.80;;
34872;SDS011;21084;51.098;14.506;2024-01-30T04:18:35;31.60;;;16.63;;
34872;SDS011;21084;51.098;14.506;2024-01-30T04:21:05;34.20;;;16.48;;
34872;SDS011;21084;51.098;14.506;2024-01-30T04:23:33;32.88;;;16.95;;
34872;SDS011;21084;51.098;14.506;2024-01-30T04:26:02;34.58;;;17.45;;
34872;SDS011;21084;51.098;14.506;2024-01-30T04:28:31;33.50;;;16.58;;
34872;SDS011;21084;51.098;14.506;2024-01-30T04:30:59;38.30;;;17.33;;
34872;SDS011;21084;51.098;14.506;2024-01-30T04:33:28;34.60;;;15.70;;
34872;SDS011;21084;51.098;14.506;2024-01-30T04:35:56;38.50;;;16.92;;
34872;SDS011;21084;51.098;14.506;2024-01-30T04:38:26;34.78;;;16.35;;
34872;SDS011;21084;51.098;14.506;2024-01-30T04:40:55;38.35;;;17.60;;
34872;SDS011;21084;51.098;14.506;2024-01-30T04:43:24;38.67;;;17.40;;
34872;SDS011;21084;51.098;14.506;2024-01-30T04:45:53;35.45;;;17.33;;
34872;SDS011;21084;51.098;14.506;2024-01-30T04:48:21;32.75;;;16.27;;
34872;SDS011;21084;51.098;14.506;2024-01-30T04:50:50;32.97;;;16.25;;
34872;SDS011;21084;51.098;14.506;2024-01-30T04:53:18;31.35;;;16.70;;
34872;SDS011;21084;51.098;14.506;2024-01-30T04:55:48;34.97;;;16.92;;
34872;SDS011;21084;51.098;14.506;2024-01-30T04:58:17;36.92;;;17.92;;
34872;SDS011;21084;51.098;14.506;2024-01-30T05:00:45;29.90;;;16.02;;
34872;SDS011;21084;51.098;14.506;2024-01-30T05:03:18;31.02;;;16.08;;
34872;SDS011;21084;51.098;14.506;2024-01-30T05:05:49;33.72;;;16.05;;
34872;SDS011;21084;51.098;14.506;2024-01-30T05:08:17;36.55;;;16.27;;
34872;SDS011;21084;51.098;14.506;2024-01-30T05:10:46;43.53;;;18.00;;
34872;SDS011;21084;51.098;14.506;2024-01-30T05:15:44;36.97;;;16.60;;
34872;SDS011;21084;51.098;14.506;2024-01-30T05:18:13;33.80;;;16.75;;
34872;SDS011;21084;51.098;14.506;2024-01-30T05:20:42;36.05;;;16.63;;
34872;SDS011;21084;51.098;14.506;2024-01-30T05:23:10;35.85;;;17.90;;
34872;SDS011;21084;51.098;14.506;2024-01-30T05:25:39;37.35;;;18.17;;
34872;SDS011;21084;51.098;14.506;2024-01-30T05:28:09;38.78;;;18.33;;
34872;SDS011;21084;51.098;14.506;2024-01-30T05:30:38;34.92;;;16.63;;
34872;SDS011;21084;51.098;14.506;2024-01-30T05:33:06;33.08;;;16.65;;
34872;SDS011;21084;51.098;14.506;2024-01-30T05:35:35;35.28;;;17.20;;
34872;SDS011;21084;51.098;14.506;2024-01-30T05:38:03;37.70;;;17.10;;
34872;SDS011;21084;51.098;14.506;2024-01-30T05:40:32;35.60;;;16.77;;
34872;SDS011;21084;51.098;14.506;2024-01-30T05:43:00;36.95;;;16.83;;
34872;SDS011;21084;51.098;14.506;2024-01-30T05:45:31;30.03;;;15.47;;
34872;SDS011;21084;51.098;14.506;2024-01-30T05:47:59;32.28;;;17.38;;
34872;SDS011;21084;51.098;14.506;2024-01-30T05:50:28;37.90;;;17.08;;
34872;SDS011;21084;51.098;14.506;2024-01-30T05:52:56;57.63;;;25.33;;
34872;SDS011;21084;51.098;14.506;2024-01-30T05:55:25;36.78;;;18.45;;
34872;SDS011;21084;51.098;14.506;2024-01-30T05:57:53;36.67;;;18.67;;
34872;SDS011;21084;51.098;14.506;2024-01-30T06:00:22;44.30;;;24.10;;
34872;SDS011;21084;51.098;14.506;2024-01-30T06:02:52;38.63;;;21.63;;
34872;SDS011;21084;51.098;14.506;2024-01-30T06:05:20;41.70;;;18.75;;
34872;SDS011;21084;51.098;14.506;2024-01-30T06:07:49;38.47;;;19.20;;
34872;SDS011;21084;51.098;14.506;2024-01-30T06:10:18;40.22;;;18.80;;
34872;SDS011;21084;51.098;14.506;2024-01-30T06:12:47;39.88;;;19.63;;
34872;SDS011;21084;51.098;14.506;2024-01-30T06:15:16;41.97;;;20.00;;
34872;SDS011;21084;51.098;14.506;2024-01-30T06:17:44;38.00;;;18.55;;
34872;SDS011;21084;51.098;14.506;2024-01-30T06:20:14;41.92;;;21.90;;
34872;SDS011;21084;51.098;14.506;2024-01-30T06:22:43;63.97;;;37.60;;
34872;SDS011;21084;51.098;14.506;2024-01-30T06:25:12;61.17;;;24.13;;
34872;SDS011;21084;51.098;14.506;2024-01-30T06:27:41;34.47;;;18.65;;
34872;SDS011;21084;51.098;14.506;2024-01-30T06:30:10;51.13;;;21.55;;
34872;SDS011;21084;51.098;14.506;2024-01-30T06:35:08;36.47;;;18.65;;
34872;SDS011;21084;51.098;14.506;2024-01-30T06:40:07;46.08;;;24.27;;
34872;SDS011;21084;51.098;14.506;2024-01-30T06:42:36;38.25;;;19.48;;
34872;SDS011;21084;51.098;14.506;2024-01-30T06:45:05;45.13;;;21.40;;
34872;SDS011;21084;51.098;14.506;2024-01-30T06:47:34;41.38;;;19.63;;
34872;SDS011;21084;51.098;14.506;2024-01-30T06:50:03;36.97;;;19.00;;
34872;SDS011;21084;51.098;14.506;2024-01-30T06:52:32;35.78;;;18.40;;
34872;SDS011;21084;51.098;14.506;2024-01-30T06:55:02;40.33;;;19.45;;
34872;SDS011;21084;51.098;14.506;2024-01-30T06:57:31;42.25;;;19.50;;
34872;SDS011;21084;51.098;14.506;2024-01-30T07:00:00;45.28;;;20.02;;
34872;SDS011;21084;51.098;14.506;2024-01-30T07:02:29;42.22;;;20.35;;
34872;SDS011;21084;51.098;14.506;2024-01-30T07:04:57;38.17;;;20.13;;
34872;SDS011;21084;51.098;14.506;2024-01-30T07:07:26;43.47;;;20.77;;
34872;SDS011;21084;51.098;14.506;2024-01-30T07:09:55;41.00;;;20.00;;
34872;SDS011;21084;51.098;14.506;2024-01-30T07:12:25;41.73;;;20.73;;
34872;SDS011;21084;51.098;14.506;2024-01-30T07:14:54;45.63;;;19.17;;
34872;SDS011;21084;51.098;14.506;2024-01-30T07:17:23;38.92;;;20.13;;
34872;SDS011;21084;51.098;14.506;2024-01-30T07:19:51;57.67;;;28.98;;
34872;SDS011;21084;51.098;14.506;2024-01-30T07:22:20;46.05;;;21.95;;
34872;SDS011;21084;51.098;14.506;2024-01-30T07:24:49;41.88;;;18.48;;
34872;SDS011;21084;51.098;14.506;2024-01-30T07:27:19;36.72;;;18.67;;
34872;SDS011;21084;51.098;14.506;2024-01-30T07:29:49;41.08;;;18.60;;
34872;SDS011;21084;51.098;14.506;2024-01-30T07:32:18;41.95;;;20.85;;
34872;SDS011;21084;51.098;14.506;2024-01-30T07:34:47;39.88;;;18.27;;
34872;SDS011;21084;51.098;14.506;2024-01-30T07:37:32;35.65;;;17.88;;
34872;SDS011;21084;51.098;14.506;2024-01-30T07:40:02;42.35;;;18.40;;
34872;SDS011;21084;51.098;14.506;2024-01-30T07:42:31;40.42;;;19.60;;
34872;SDS011;21084;51.098;14.506;2024-01-30T07:45:01;40.35;;;18.30;;
34872;SDS011;21084;51.098;14.506;2024-01-30T07:47:30;37.35;;;18.45;;
34872;SDS011;21084;51.098;14.506;2024-01-30T07:49:58;42.10;;;18.13;;
34872;SDS011;21084;51.098;14.506;2024-01-30T07:52:27;39.95;;;18.58;;
34872;SDS011;21084;51.098;14.506;2024-01-30T07:54:56;36.80;;;18.30;;
34872;SDS011;21084;51.098;14.506;2024-01-30T07:57:25;38.97;;;17.92;;
34872;SDS011;21084;51.098;14.506;2024-01-30T07:59:53;31.73;;;17.10;;
34872;SDS011;21084;51.098;14.506;2024-01-30T08:02:23;38.35;;;17.10;;
34872;SDS011;21084;51.098;14.506;2024-01-30T08:04:52;33.85;;;17.70;;
34872;SDS011;21084;51.098;14.506;2024-01-30T08:07:21;28.75;;;16.25;;
34872;SDS011;21084;51.098;14.506;2024-01-30T08:09:50;33.53;;;18.15;;
34872;SDS011;21084;51.098;14.506;2024-01-30T08:12:19;29.52;;;16.98;;
34872;SDS011;21084;51.098;14.506;2024-01-30T08:14:47;34.03;;;17.90;;
34872;SDS011;21084;51.098;14.506;2024-01-30T08:17:16;33.95;;;17.25;;
34872;SDS011;21084;51.098;14.506;2024-01-30T08:19:46;34.65;;;16.83;;
34872;SDS011;21084;51.098;14.506;2024-01-30T08:22:14;37.30;;;16.60;;
34872;SDS011;21084;51.098;14.506;2024-01-30T08:24:43;31.17;;;17.20;;
34872;SDS011;21084;51.098;14.506;2024-01-30T08:27:12;35.25;;;16.45;;
34872;SDS011;21084;51.098;14.506;2024-01-30T08:29:40;27.77;;;16.35;;
34872;SDS011;21084;51.098;14.506;2024-01-30T08:32:09;29.02;;;15.95;;
34872;SDS011;21084;51.098;14.506;2024-01-30T08:34:37;31.08;;;16.55;;
34872;SDS011;21084;51.098;14.506;2024-01-30T08:37:08;33.63;;;17.20;;
34872;SDS011;21084;51.098;14.506;2024-01-30T08:39:37;28.73;;;16.25;;
34872;SDS011;21084;51.098;14.506;2024-01-30T08:42:06;30.27;;;15.68;;
34872;SDS011;21084;51.098;14.506;2024-01-30T08:44:34;31.67;;;15.60;;
34872;SDS011;21084;51.098;14.506;2024-01-30T08:47:03;27.73;;;15.85;;
34872;SDS011;21084;51.098;14.506;2024-01-30T08:49:32;29.65;;;15.85;;
34872;SDS011;21084;51.098;14.506;2024-01-30T08:52:01;30.83;;;16.00;;
34872;SDS011;21084;51.098;14.506;2024-01-30T08:54:31;29.05;;;15.38;;
34872;SDS011;21084;51.098;14.506;2024-01-30T08:57:02;28.17;;;15.02;;
34872;SDS011;21084;51.098;14.506;2024-01-30T08:59:30;35.53;;;15.77;;
34872;SDS011;21084;51.098;14.506;2024-01-30T09:02:00;26.92;;;15.13;;
34872;SDS011;21084;51.098;14.506;2024-01-30T09:04:38;29.58;;;16.13;;
34872;SDS011;21084;51.098;14.506;2024-01-30T09:07:08;32.30;;;16.20;;
34872;SDS011;21084;51.098;14.506;2024-01-30T09:09:39;29.15;;;16.20;;
34872;SDS011;21084;51.098;14.506;2024-01-30T09:12:08;31.50;;;16.40;;
34872;SDS011;21084;51.098;14.506;2024-01-30T09:14:39;33.30;;;16.30;;
34872;SDS011;21084;51.098;14.506;2024-01-30T09:17:08;36.33;;;17.33;;
34872;SDS011;21084;51.098;14.506;2024-01-30T09:19:37;29.00;;;16.10;;
34872;SDS011;21084;51.098;14.506;2024-01-30T09:22:06;29.40;;;15.65;;
34872;SDS011;21084;51.098;14.506;2024-01-30T09:24:34;31.83;;;15.98;;
34872;SDS011;21084;51.098;14.506;2024-01-30T09:27:04;33.15;;;16.88;;
34872;SDS011;21084;51.098;14.506;2024-01-30T09:29:33;28.13;;;15.73;;
34872;SDS011;21084;51.098;14.506;2024-01-30T09:32:04;29.45;;;16.13;;
34872;SDS011;21084;51.098;14.506;2024-01-30T09:34:33;27.02;;;15.38;;
34872;SDS011;21084;51.098;14.506;2024-01-30T09:37:03;35.42;;;16.30;;
34872;SDS011;21084;51.098;14.506;2024-01-30T09:39:31;31.35;;;16.15;;
34872;SDS011;21084;51.098;14.506;2024-01-30T09:42:01;27.63;;;17.08;;
34872;SDS011;21084;51.098;14.506;2024-01-30T09:44:35;27.83;;;16.35;;
34872;SDS011;21084;51.098;14.506;2024-01-30T09:47:06;33.58;;;16.70;;
34872;SDS011;21084;51.098;14.506;2024-01-30T09:49:34;39.63;;;17.63;;
34872;SDS011;21084;51.098;14.506;2024-01-30T09:52:04;29.90;;;16.67;;
34872;SDS011;21084;51.098;14.506;2024-01-30T09:54:34;31.10;;;16.98;;
34872;SDS011;21084;51.098;14.506;2024-01-30T09:57:03;31.30;;;16.20;;
34872;SDS011;21084;51.098;14.506;2024-01-30T09:59:32;29.77;;;15.53;;
34872;SDS011;21084;51.098;14.506;2024-01-30T10:02:02;30.48;;;16.92;;
34872;SDS011;21084;51.098;14.506;2024-01-30T10:04:31;30.67;;;16.60;;
34872;SDS011;21084;51.098;14.506;2024-01-30T10:07:01;30.48;;;15.82;;
34872;SDS011;21084;51.098;14.506;2024-01-30T10:11:59;34.03;;;16.92;;
34872;SDS011;21084;51.098;14.506;2024-01-30T10:14:30;29.45;;;16.00;;
34872;SDS011;21084;51.098;14.506;2024-01-30T10:16:58;29.33;;;16.35;;
34872;SDS011;21084;51.098;14.506;2024-01-30T10:19:28;28.63;;;15.13;;
34872;SDS011;21084;51.098;14.506;2024-01-30T10:21:57;34.42;;;16.35;;
34872;SDS011;21084;51.098;14.506;2024-01-30T10:24:28;33.10;;;16.45;;
34872;SDS011;21084;51.098;14.506;2024-01-30T10:26:57;33.47;;;17.27;;
34872;SDS011;21084;51.098;14.506;2024-01-30T10:29:26;32.70;;;16.77;;
34872;SDS011;21084;51.098;14.506;2024-01-30T10:31:58;31.15;;;15.40;;
34872;SDS011;21084;51.098;14.506;2024-01-30T10:34:28;28.50;;;15.63;;
34872;SDS011;21084;51.098;14.506;2024-01-30T10:36:59;33.63;;;15.98;;
34872;SDS011;21084;51.098;14.506;2024-01-30T10:39:36;34.67;;;16.52;;
34872;SDS011;21084;51.098;14.506;2024-01-30T10:42:07;28.48;;;15.60;;
34872;SDS011;21084;51.098;14.506;2024-01-30T10:44:44;28.73;;;15.07;;
34872;SDS011;21084;51.098;14.506;2024-01-30T10:47:17;27.67;;;14.70;;
34872;SDS011;21084;51.098;14.506;2024-01-30T10:49:51;28.42;;;14.60;;
34872;SDS011;21084;51.098;14.506;2024-01-30T10:52:23;28.85;;;14.75;;
34872;SDS011;21084;51.098;14.506;2024-01-30T10:54:53;31.50;;;15.63;;
34872;SDS011;21084;51.098;14.506;2024-01-30T10:57:22;29.60;;;16.05;;
34872;SDS011;21084;51.098;14.506;2024-01-30T10:59:52;30.52;;;14.55;;
34872;SDS011;21084;51.098;14.506;2024-01-30T11:02:24;24.08;;;14.38;;
34872;SDS011;21084;51.098;14.506;2024-01-30T11:04:56;27.13;;;14.65;;
34872;SDS011;21084;51.098;14.506;2024-01-30T11:07:26;25.13;;;14.23;;
34872;SDS011;21084;51.098;14.506;2024-01-30T11:09:59;27.58;;;15.10;;
34872;SDS011;21084;51.098;14.506;2024-01-30T11:12:29;27.95;;;14.45;;
34872;SDS011;21084;51.098;14.506;2024-01-30T11:15:04;24.55;;;14.07;;
34872;SDS011;21084;51.098;14.506;2024-01-30T11:17:41;24.70;;;13.68;;
34872;SDS011;21084;51.098;14.506;2024-01-30T11:20:12;31.13;;;14.32;;
34872;SDS011;21084;51.098;14.506;2024-01-30T11:22:44;27.13;;;14.85;;
34872;SDS011;21084;51.098;14.506;2024-01-30T11:25:13;23.75;;;14.07;;
34872;SDS011;21084;51.098;14.506;2024-01-30T11:27:43;25.50;;;13.45;;
34872;SDS011;21084;51.098;14.506;2024-01-30T11:30:20;27.33;;;14.18;;
34872;SDS011;21084;51.098;14.506;2024-01-30T11:33:03;24.70;;;13.35;;
34872;SDS011;21084;51.098;14.506;2024-01-30T11:35:35;24.40;;;13.50;;
34872;SDS011;21084;51.098;14.506;2024-01-30T11:38:06;24.10;;;13.52;;
34872;SDS011;21084;51.098;14.506;2024-01-30T11:40:37;24.73;;;14.02;;
34872;SDS011;21084;51.098;14.506;2024-01-30T11:43:07;25.52;;;14.85;;
34872;SDS011;21084;51.098;14.506;2024-01-30T11:45:37;20.58;;;13.10;;
34872;SDS011;21084;51.098;14.506;2024-01-30T11:48:06;23.80;;;14.35;;
34872;SDS011;21084;51.098;14.506;2024-01-30T11:50:39;24.10;;;13.15;;
34872;SDS011;21084;51.098;14.506;2024-01-30T11:53:08;22.10;;;12.75;;
34872;SDS011;21084;51.098;14.506;2024-01-30T11:55:38;26.70;;;13.63;;
34872;SDS011;21084;51.098;14.506;2024-01-30T11:58:06;21.83;;;14.00;;
34872;SDS011;21084;51.098;14.506;2024-01-30T12:00:35;23.30;;;13.32;;
34872;SDS011;21084;51.098;14.506;2024-01-30T12:03:04;25.98;;;13.48;;
34872;SDS011;21084;51.098;14.506;2024-01-30T12:05:33;23.10;;;12.65;;
34872;SDS011;21084;51.098;14.506;2024-01-30T12:08:05;20.15;;;12.82;;
34872;SDS011;21084;51.098;14.506;2024-01-30T12:10:33;20.40;;;13.52;;
34872;SDS011;21084;51.098;14.506;2024-01-30T12:13:02;19.85;;;12.23;;
34872;SDS011;21084;51.098;14.506;2024-01-30T12:15:31;23.17;;;13.20;;
34872;SDS011;21084;51.098;14.506;2024-01-30T12:18:03;24.33;;;13.18;;
34872;SDS011;21084;51.098;14.506;2024-01-30T12:20:34;24.80;;;13.57;;
34872;SDS011;21084;51.098;14.506;2024-01-30T12:23:04;22.27;;;13.25;;
34872;SDS011;21084;51.098;14.506;2024-01-30T12:25:33;24.67;;;13.48;;
34872;SDS011;21084;51.098;14.506;2024-01-30T12:28:02;25.27;;;13.90;;
34872;SDS011;21084;51.098;14.506;2024-01-30T12:30:31;23.20;;;14.32;;
34872;SDS011;21084;51.098;14.506;2024-01-30T12:33:00;26.27;;;14.43;;
34872;SDS011;21084;51.098;14.506;2024-01-30T12:35:31;22.58;;;13.25;;
34872;SDS011;21084;51.098;14.506;2024-01-30T12:38:00;25.38;;;14.05;;
34872;SDS011;21084;51.098;14.506;2024-01-30T12:40:33;29.80;;;14.30;;
34872;SDS011;21084;51.098;14.506;2024-01-30T12:43:04;23.42;;;15.02;;
34872;SDS011;21084;51.098;14.506;2024-01-30T12:45:33;25.52;;;14.90;;
34872;SDS011;21084;51.098;14.506;2024-01-30T12:48:02;22.80;;;13.80;;
34872;SDS011;21084;51.098;14.506;2024-01-30T12:50:31;25.33;;;14.50;;
34872;SDS011;21084;51.098;14.506;2024-01-30T12:52:59;24.95;;;14.57;;
34872;SDS011;21084;51.098;14.506;2024-01-30T12:55:28;26.38;;;16.50;;
34872;SDS011;21084;51.098;14.506;2024-01-30T12:57:58;28.03;;;15.57;;
34872;SDS011;21084;51.098;14.506;2024-01-30T13:02:55;27.85;;;14.90;;
34872;SDS011;21084;51.098;14.506;2024-01-30T13:05:23;26.95;;;15.05;;
34872;SDS011;21084;51.098;14.506;2024-01-30T13:07:52;24.80;;;15.25;;
34872;SDS011;21084;51.098;14.506;2024-01-30T13:10:22;24.92;;;15.75;;
34872;SDS011;21084;51.098;14.506;2024-01-30T13:12:51;28.48;;;15.93;;
34872;SDS011;21084;51.098;14.506;2024-01-30T13:15:21;26.65;;;15.88;;
34872;SDS011;21084;51.098;14.506;2024-01-30T13:17:50;29.98;;;15.35;;
34872;SDS011;21084;51.098;14.506;2024-01-30T13:20:21;26.38;;;15.38;;
34872;SDS011;21084;51.098;14.506;2024-01-30T13:22:49;29.55;;;16.23;;
34872;SDS011;21084;51.098;14.506;2024-01-30T13:25:18;27.50;;;16.00;;
34872;SDS011;21084;51.098;14.506;2024-01-30T13:27:47;27.92;;;15.80;;
34872;SDS011;21084;51.098;14.506;2024-01-30T13:30:15;31.33;;;17.85;;
34872;SDS011;21084;51.098;14.506;2024-01-30T13:32:46;31.52;;;17.65;;
34872;SDS011;21084;51.098;14.506;2024-01-30T13:37:43;41.10;;;17.95;;
34872;SDS011;21084;51.098;14.506;2024-01-30T13:40:14;35.47;;;18.38;;
34872;SDS011;21084;51.098;14.506;2024-01-30T13:42:43;34.13;;;18.60;;
34872;SDS011;21084;51.098;14.506;2024-01-30T13:45:12;35.88;;;19.55;;
34872;SDS011;21084;51.098;14.506;2024-01-30T13:47:41;31.60;;;18.58;;
34872;SDS011;21084;51.098;14.506;2024-01-30T13:50:11;34.65;;;19.15;;
34872;SDS011;21084;51.098;14.506;2024-01-30T13:52:42;32.17;;;19.65;;
34872;SDS011;21084;51.098;14.506;2024-01-30T13:57:40;34.40;;;19.27;;
34872;SDS011;21084;51.098;14.506;2024-01-30T14:00:09;37.05;;;20.85;;
34872;SDS011;21084;51.098;14.506;2024-01-30T14:02:39;37.42;;;21.05;;
34872;SDS011;21084;51.098;14.506;2024-01-30T14:05:08;37.63;;;20.15;;
34872;SDS011;21084;51.098;14.506;2024-01-30T14:07:38;46.65;;;22.55;;
34872;SDS011;21084;51.098;14.506;2024-01-30T14:10:07;38.78;;;21.70;;
34872;SDS011;21084;51.098;14.506;2024-01-30T14:12:41;42.13;;;22.23;;
34872;SDS011;21084;51.098;14.506;2024-01-30T14:15:11;42.05;;;22.48;;
34872;SDS011;21084;51.098;14.506;2024-01-30T14:17:53;44.97;;;24.95;;
34872;SDS011;21084;51.098;14.506;2024-01-30T14:20:25;46.97;;;25.05;;
34872;SDS011;21084;51.098;14.506;2024-01-30T14:22:55;41.38;;;22.27;;
34872;SDS011;21084;51.098;14.506;2024-01-30T14:25:23;42.92;;;22.58;;
34872;SDS011;21084;51.098;14.506;2024-01-30T14:27:52;44.03;;;23.90;;
34872;SDS011;21084;51.098;14.506;2024-01-30T14:30:21;49.45;;;24.83;;
34872;SDS011;21084;51.098;14.506;2024-01-30T14:32:50;50.55;;;25.00;;
34872;SDS011;21084;51.098;14.506;2024-01-30T14:35:19;48.90;;;25.63;;
34872;SDS011;21084;51.098;14.506;2024-01-30T14:37:48;42.22;;;24.92;;
34872;SDS011;21084;51.098;14.506;2024-01-30T14:40:18;53.00;;;26.02;;
34872;SDS011;21084;51.098;14.506;2024-01-30T14:42:47;48.60;;;25.63;;
34872;SDS011;21084;51.098;14.506;2024-01-30T14:45:16;50.05;;;25.75;;
34872;SDS011;21084;51.098;14.506;2024-01-30T14:47:45;53.08;;;27.45;;